Time;durP1;ratioP1;P1;durP2;ratioP2;P2;SDS_P1;SDS_P2;PMS_P1;PMS_P2;Temp;Humidity;BMP_temperature;BMP_pressure;BME280_temperature;BME280_humidity;BME280_pressure;Samples;Min_cycle;Max_cycle;Signal;HPM_P1;HPM_P2
2022/12/30 00:01:45;;;;;;;77.53;32.30;;;;;;;1.91;85.63;101059.25;5069382;28;20083;-26
2022/12/30 00:04:11;;;;;;;71.55;30.05;;;;;;;2.04;85.18;101052.88;5069232;28;20032;-28
2022/12/30 00:06:36;;;;;;;63.55;30.35;;;;;;;1.99;83.17;101055.94;5051088;28;20119;-26
2022/12/30 00:09:02;;;;;;;67.88;28.98;;;;;;;1.76;83.83;101042.22;5069656;28;20039;-26
2022/12/30 00:11:30;;;;;;;62.42;29.50;;;;;;;1.76;85.47;101073.78;5069262;28;20020;-26
2022/12/30 00:34:12;;;;;;;58.75;23.65;;;;;;;1.04;88.59;101075.66;5069130;28;20035;-27
2022/12/30 00:36:38;;;;;;;68.78;25.13;;;;;;;0.82;89.20;101081.94;5069037;28;20021;-28
2022/12/30 00:39:03;;;;;;;55.33;23.77;;;;;;;0.69;90.17;101081.28;5069021;28;20033;-26
2022/12/30 00:44:23;;;;;;;67.88;22.92;;;;;;;0.81;88.16;101069.75;5013847;28;20485;-26
2022/12/30 00:46:49;;;;;;;49.70;23.00;;;;;;;0.50;88.48;101047.88;5069032;28;20484;-28
2022/12/30 00:57:28;;;;;;;62.17;24.83;;;;;;;0.25;90.43;101081.44;5068807;28;20032;-27
2022/12/30 00:59:54;;;;;;;67.55;26.63;;;;;;;0.70;89.02;101081.16;5068760;28;20037;-26
2022/12/30 01:02:20;;;;;;;74.95;28.77;;;;;;;0.39;89.55;101052.25;5068548;28;20086;-30
2022/12/30 01:04:45;;;;;;;61.13;28.27;;;;;;;0.70;88.91;101088.22;5050640;28;20036;-25
2022/12/30 01:07:11;;;;;;;61.63;29.10;;;;;;;1.08;87.80;101084.94;5068506;28;20024;-26
2022/12/30 01:09:37;;;;;;;71.40;31.40;;;;;;;1.20;87.05;101086.50;5068759;28;20021;-26
2022/12/30 01:12:09;;;;;;;63.80;27.67;;;;;;;1.13;86.39;101064.34;5068462;28;20033;-27
2022/12/30 01:14:45;;;;;;;65.50;30.27;;;;;;;1.34;85.51;101087.09;5050711;28;20021;-27
2022/12/30 01:17:14;;;;;;;55.58;29.38;;;;;;;1.33;84.18;101080.22;5050491;28;20040;-30
2022/12/30 01:19:40;;;;;;;53.63;27.98;;;;;;;0.74;86.17;101069.44;5068783;28;20103;-25
2022/12/30 01:22:06;;;;;;;56.75;28.60;;;;;;;0.40;87.38;101053.06;5068111;28;20493;-26
2022/12/30 01:24:32;;;;;;;57.60;28.15;;;;;;;0.42;87.77;101068.69;5068536;28;20021;-26
2022/12/30 01:26:57;;;;;;;50.65;28.02;;;;;;;0.85;87.12;101075.56;5071808;28;20032;-26
2022/12/30 01:29:26;;;;;;;51.40;28.02;;;;;;;1.06;84.41;101065.00;5072208;28;20028;-26
2022/12/30 01:31:55;;;;;;;50.72;26.63;;;;;;;0.80;85.64;101063.66;5072057;28;20044;-26
2022/12/30 01:34:21;;;;;;;47.33;27.10;;;;;;;0.51;86.33;101067.91;5054203;28;20078;-29
2022/12/30 01:36:46;;;;;;;50.45;26.33;;;;;;;0.22;86.76;101065.09;5072414;28;20526;-25
2022/12/30 01:39:12;;;;;;;50.53;26.55;;;;;;;0.06;87.74;101041.91;5072049;28;20409;-26
2022/12/30 01:41:38;;;;;;;49.08;26.70;;;;;;;0.03;87.95;101066.63;5072253;28;20036;-26
2022/12/30 01:44:50;;;;;;;48.03;25.75;;;;;;;-0.09;87.62;101060.56;5053863;28;20427;-27
2022/12/30 01:47:23;;;;;;;47.90;25.20;;;;;;;-0.44;89.22;101058.19;5072180;28;20036;-27
2022/12/30 01:49:52;;;;;;;52.10;26.30;;;;;;;-0.30;88.28;101039.56;5071833;28;20031;-25
2022/12/30 01:52:20;;;;;;;49.05;26.50;;;;;;;-0.23;88.08;101029.41;5071883;28;20097;-25
2022/12/30 01:54:47;;;;;;;;;;;;;;;-0.11;89.32;101036.28;5071939;28;20044;-28
2022/12/30 01:57:14;;;;;;;49.97;23.88;;;;;;;-0.12;89.17;101018.88;5072035;28;19912;-27
2022/12/30 01:59:39;;;;;;;50.20;24.75;;;;;;;0.39;87.28;101033.88;5053833;28;20024;-28
2022/12/30 02:02:05;;;;;;;47.05;24.65;;;;;;;0.46;87.44;101034.19;5071935;28;20024;-27
2022/12/30 02:04:31;;;;;;;58.00;26.92;;;;;;;0.15;87.57;101020.19;5071587;28;20036;-27
2022/12/30 02:07:17;;;;;;;51.50;27.85;;;;;;;0.10;86.52;101017.09;5071574;28;20028;-27
2022/12/30 02:09:43;;;;;;;55.75;26.95;;;;;;;0.07;88.43;101028.69;5071362;28;20020;-25
2022/12/30 02:12:10;;;;;;;55.90;25.75;;;;;;;0.45;87.05;101039.56;5053579;28;20029;-27
2022/12/30 02:14:39;;;;;;;53.45;28.23;;;;;;;0.61;86.14;101037.31;5071792;28;20028;-28
2022/12/30 02:17:23;;;;;;;63.30;27.70;;;;;;;0.31;87.82;101025.81;5071418;28;20040;-26
2022/12/30 02:20:33;;;;;;;57.78;28.38;;;;;;;0.35;87.12;101019.34;5071277;28;20121;-25
2022/12/30 02:23:13;;;;;;;50.78;25.83;;;;;;;0.18;88.16;101010.28;5055113;28;20127;-25
2022/12/30 02:26:03;;;;;;;53.85;27.38;;;;;;;0.27;89.26;101016.53;5071350;28;20032;-26
2022/12/30 02:28:53;;;;;;;51.28;27.63;;;;;;;0.73;85.79;101027.56;5071507;28;20082;-27
2022/12/30 02:31:37;;;;;;;56.97;28.23;;;;;;;1.00;84.09;101026.97;5071706;28;20111;-25
2022/12/30 02:34:24;;;;;;;57.88;27.35;;;;;;;1.18;83.01;101020.09;5071110;28;20116;-27
2022/12/30 02:37:21;;;;;;;57.08;28.33;;;;;;;0.76;84.63;101017.63;5070822;28;20036;-26
2022/12/30 02:40:11;;;;;;;59.30;29.45;;;;;;;0.75;85.40;101017.75;5041717;28;20047;-27
2022/12/30 02:45:50;;;;;;;62.30;30.58;;;;;;;0.58;85.78;101027.91;5071315;28;20090;-25
2022/12/30 02:48:20;;;;;;;72.03;32.70;;;;;;;0.56;86.98;101015.88;5070590;28;20032;-27
2022/12/30 02:53:35;;;;;;;63.13;30.27;;;;;;;0.55;86.58;101037.81;5055806;28;20036;-27
2022/12/30 02:56:01;;;;;;;56.83;30.13;;;;;;;0.46;86.28;101007.13;5070763;28;20555;-26
2022/12/30 02:58:31;;;;;;;62.17;35.28;;;;;;;0.29;87.69;101033.00;5070604;28;20086;-26
2022/12/30 03:04:08;;;;;;;46.97;26.40;;;;;;;0.55;86.31;101046.56;5070508;28;20044;-26
2022/12/30 03:06:51;;;;;;;45.67;27.25;;;;;;;0.68;85.71;101038.47;5070628;28;20025;-27
2022/12/30 03:09:38;;;;;;;56.35;26.63;;;;;;;0.69;84.67;101055.84;5070563;28;20036;-25
2022/12/30 03:12:22;;;;;;;44.88;26.80;;;;;;;0.42;85.50;101051.16;5052070;28;20032;-27
2022/12/30 03:14:56;;;;;;;54.92;28.27;;;;;;;0.50;85.39;101040.84;5070597;28;20029;-26
2022/12/30 03:17:27;;;;;;;51.22;27.23;;;;;;;0.67;83.40;101025.44;5070604;28;20120;-25
2022/12/30 03:19:57;;;;;;;51.70;26.63;;;;;;;0.49;85.00;101043.59;5070276;28;20025;-25
2022/12/30 03:27:58;;;;;;;59.65;30.42;;;;;;;0.48;83.80;101026.19;5070149;28;20511;-25
2022/12/30 03:30:24;;;;;;;55.53;28.95;;;;;;;0.67;84.26;101051.72;5051798;28;20032;-25
2022/12/30 03:32:50;;;;;;;57.65;29.33;;;;;;;0.65;84.23;101053.63;5069838;28;20028;-25
2022/12/30 03:35:18;;;;;;;56.72;30.70;;;;;;;0.66;84.42;101053.50;5070096;28;20025;-26
2022/12/30 03:37:51;;;;;;;58.67;29.03;;;;;;;0.50;84.17;101040.03;5070006;28;20083;-25
2022/12/30 03:40:31;;;;;;;50.13;27.15;;;;;;;0.55;84.00;101058.81;5069710;28;20531;-25
2022/12/30 03:42:57;;;;;;;52.90;27.02;;;;;;;0.08;86.07;101042.63;5052040;28;20031;-26
2022/12/30 03:45:23;;;;;;;50.85;26.27;;;;;;;0.03;86.52;101050.06;5069559;28;20139;-27
2022/12/30 03:47:49;;;;;;;66.20;27.52;;;;;;;0.25;86.60;101065.69;5069840;28;20150;-25
2022/12/30 03:50:14;;;;;;;58.28;27.00;;;;;;;0.26;85.77;101058.63;5068782;28;20024;-26
2022/12/30 03:52:40;;;;;;;55.50;26.08;;;;;;;-0.10;86.99;101035.34;5052060;28;20090;-25
2022/12/30 03:55:06;;;;;;;63.40;30.25;;;;;;;-0.16;86.93;101032.34;5051803;28;20202;-25
2022/12/30 03:57:32;;;;;;;70.28;30.88;;;;;;;0.10;86.60;101053.81;5069856;28;20609;-27
2022/12/30 03:59:57;;;;;;;68.68;31.75;;;;;;;-0.21;86.61;101035.34;5069341;28;20037;-25
2022/12/30 04:02:23;;;;;;;59.67;31.70;;;;;;;-0.21;87.04;101040.59;5069459;28;20581;-25
2022/12/30 04:04:48;;;;;;;57.53;31.75;;;;;;;-0.15;86.98;101040.09;5069445;28;20039;-25
2022/12/30 04:07:14;;;;;;;69.05;32.65;;;;;;;-0.24;87.71;101061.84;5069321;28;20103;-28
2022/12/30 04:09:40;;;;;;;55.92;30.15;;;;;;;-0.72;89.95;101067.41;5051463;28;20028;-26
2022/12/30 04:12:05;;;;;;;71.05;29.55;;;;;;;-0.58;89.93;101068.94;5069155;28;20404;-25
2022/12/30 04:14:31;;;;;;;70.03;29.25;;;;;;;-0.28;89.34;101053.38;5069172;28;20155;-25
2022/12/30 04:16:56;;;;;;;68.95;29.30;;;;;;;-0.55;89.11;101043.34;5069458;28;20021;-27
2022/12/30 04:19:22;;;;;;;62.10;25.77;;;;;;;-0.64;91.17;101060.59;5069271;28;20040;-27
2022/12/30 04:21:48;;;;;;;62.15;26.92;;;;;;;-0.60;92.02;101069.06;5069012;28;20492;-26
2022/12/30 04:24:13;;;;;;;67.88;28.83;;;;;;;-0.29;90.95;101063.97;5068961;28;20028;-25
2022/12/30 04:26:38;;;;;;;62.45;27.02;;;;;;;-0.78;92.14;101065.28;5069186;28;20028;-27
2022/12/30 04:29:04;;;;;;;73.85;29.90;;;;;;;-0.42;93.76;101070.22;5050908;28;20021;-26
2022/12/30 04:31:29;;;;;;;59.13;26.65;;;;;;;-0.48;90.45;101048.91;5069340;28;20021;-24
2022/12/30 04:33:55;;;;;;;79.70;29.02;;;;;;;-0.52;92.58;101071.91;5051127;28;20056;-26
2022/12/30 04:36:21;;;;;;;75.82;32.10;;;;;;;-0.58;92.14;101048.81;5068802;28;20485;-28
2022/12/30 04:38:47;;;;;;;100.22;47.10;;;;;;;-0.18;90.82;101056.09;5050732;28;20493;-25
2022/12/30 04:41:13;;;;;;;73.13;31.15;;;;;;;-0.16;90.15;101072.53;5050920;28;20035;-25
2022/12/30 04:43:39;;;;;;;69.45;26.85;;;;;;;-0.11;89.02;101044.13;5050733;28;20036;-27
2022/12/30 04:46:05;;;;;;;52.88;27.83;;;;;;;-0.06;87.98;101065.59;5068916;28;20036;-25
2022/12/30 04:48:31;;;;;;;87.53;49.30;;;;;;;-0.16;89.37;101076.91;5069044;28;20028;-25
2022/12/30 04:50:57;;;;;;;150.40;91.25;;;;;;;0.02;88.27;101064.09;5069071;28;20029;-26
2022/12/30 04:53:22;;;;;;;88.50;53.38;;;;;;;-0.19;87.92;101054.41;5068952;28;20060;-27
2022/12/30 04:55:52;;;;;;;79.55;51.58;;;;;;;-0.22;89.12;101071.22;5050908;28;20051;-30
2022/12/30 04:58:18;;;;;;;76.75;44.28;;;;;;;-0.26;89.49;101074.22;5068431;28;20032;-26
2022/12/30 05:00:43;;;;;;;77.10;45.17;;;;;;;-0.23;89.21;101079.22;5070227;28;20020;-24
2022/12/30 05:03:09;;;;;;;83.25;54.40;;;;;;;-0.09;88.88;101078.94;5072735;28;20040;-28
2022/12/30 05:05:35;;;;;;;62.80;35.92;;;;;;;-0.09;88.20;101065.81;5072860;28;20029;-25
2022/12/30 05:08:00;;;;;;;49.33;24.30;;;;;;;0.27;86.05;101082.13;5072516;28;20029;-25
2022/12/30 05:10:25;;;;;;;49.35;22.40;;;;;;;0.09;86.45;101078.41;5054880;28;20458;-25
2022/12/30 05:12:51;;;;;;;53.72;25.55;;;;;;;-0.10;86.63;101064.16;5072716;28;20032;-26
2022/12/30 05:15:16;;;;;;;51.08;24.08;;;;;;;-0.13;86.78;101082.75;5072761;28;20025;-25
2022/12/30 05:17:42;;;;;;;61.78;25.58;;;;;;;-0.55;88.62;101085.25;5072629;28;20032;-27
2022/12/30 05:20:08;;;;;;;52.20;24.77;;;;;;;-0.49;88.17;101074.28;5072271;28;20032;-27
2022/12/30 05:22:34;;;;;;;54.88;24.45;;;;;;;-0.20;87.39;101084.22;5072271;28;20085;-26
2022/12/30 05:27:43;;;;;;;56.97;25.85;;;;;;;-0.69;87.95;101088.13;5072368;28;20116;-26
2022/12/30 05:30:09;;;;;;;53.00;24.80;;;;;;;-0.55;87.61;101079.16;5072247;28;20028;-26
2022/12/30 05:32:35;;;;;;;56.75;25.63;;;;;;;-0.68;88.35;101100.25;5072526;28;20063;-25
2022/12/30 05:35:00;;;;;;;59.65;28.13;;;;;;;-0.62;88.00;101087.50;5072081;28;20025;-25
2022/12/30 05:37:25;;;;;;;56.63;26.60;;;;;;;-0.75;88.15;101067.66;5054293;28;20388;-25
2022/12/30 05:39:51;;;;;;;59.45;28.08;;;;;;;-0.52;88.10;101094.66;5071823;28;20900;-27
2022/12/30 05:42:16;;;;;;;59.42;27.55;;;;;;;-0.76;88.06;101079.06;5054248;28;20080;-25
2022/12/30 05:44:42;;;;;;;48.33;24.48;;;;;;;-0.35;86.54;101098.53;5070703;28;20427;-24
2022/12/30 05:47:07;;;;;;;50.00;25.70;;;;;;;-0.59;86.80;101083.84;5092177;28;20391;-26
2022/12/30 05:49:33;;;;;;;43.17;24.67;;;;;;;-0.23;85.75;101097.56;5074097;28;20589;-28
2022/12/30 05:51:58;;;;;;;44.10;23.30;;;;;;;-0.28;84.17;101097.13;5092069;28;20388;-26
2022/12/30 05:54:24;;;;;;;46.35;23.55;;;;;;;-0.49;85.35;101074.28;5073636;28;20035;-25
2022/12/30 05:56:49;;;;;;;47.08;26.20;;;;;;;-0.20;84.57;101107.81;5092011;28;20023;-25
2022/12/30 05:59:15;;;;;;;46.88;24.23;;;;;;;-0.09;85.40;101102.53;5092033;28;20024;-25
2022/12/30 06:01:40;;;;;;;51.20;26.88;;;;;;;-0.47;86.57;101108.22;5092033;28;20059;-26
2022/12/30 06:04:05;;;;;;;46.53;23.77;;;;;;;-0.34;86.71;101113.34;5091784;28;20495;-26
2022/12/30 06:06:31;;;;;;;46.65;23.50;;;;;;;7.29;75.56;101109.19;5073659;28;20031;-26
2022/12/30 06:08:56;;;;;;;43.97;22.55;;;;;;;12.45;64.33;101126.00;5091901;28;20026;-26
2022/12/30 06:11:22;;;;;;;38.55;22.55;;;;;;;12.06;52.69;101148.97;5091518;28;20028;-28
2022/12/30 06:13:47;;;;;;;42.33;21.83;;;;;;;13.26;52.84;101121.38;5090780;28;20107;-27
2022/12/30 06:16:13;;;;;;;46.33;22.52;;;;;;;14.29;49.57;101139.25;5091478;28;20024;-27
2022/12/30 06:18:38;;;;;;;42.03;22.13;;;;;;;8.00;49.05;101136.56;5091865;28;20548;-27
2022/12/30 06:21:04;;;;;;;46.58;23.20;;;;;;;4.76;59.59;101121.84;5073078;28;20473;-26
2022/12/30 06:23:29;;;;;;;40.97;22.95;;;;;;;3.71;65.03;101136.56;5073311;28;20035;-27
2022/12/30 06:25:56;;;;;;;56.58;25.77;;;;;;;3.10;67.05;101138.75;5091530;28;20060;-25
2022/12/30 06:28:23;;;;;;;72.28;31.80;;;;;;;2.56;69.38;101120.03;5091523;28;20065;-27
2022/12/30 06:30:49;;;;;;;67.53;26.42;;;;;;;1.82;73.59;101131.09;5073165;28;20035;-25
2022/12/30 06:33:19;;;;;;;84.82;28.65;;;;;;;0.99;77.55;101104.13;5073215;28;20020;-26
2022/12/30 06:35:46;;;;;;;52.53;24.40;;;;;;;0.92;80.26;101139.72;5072720;28;20043;-26
2022/12/30 06:38:11;;;;;;;58.50;25.50;;;;;;;1.38;87.01;101139.25;5091105;28;20085;-27
2022/12/30 06:40:37;;;;;;;43.45;22.67;;;;;;;2.60;84.37;101139.03;5091228;28;20035;-25
2022/12/30 06:43:02;;;;;;;56.63;23.13;;;;;;;6.36;83.83;101151.09;5073170;28;20032;-26
2022/12/30 06:45:28;;;;;;;44.42;23.30;;;;;;;7.32;64.05;101154.81;5091173;28;20028;-26
2022/12/30 06:47:53;;;;;;;43.08;23.05;;;;;;;4.54;67.24;101147.78;5091142;28;20107;-25
2022/12/30 06:50:19;;;;;;;48.40;24.02;;;;;;;3.79;71.50;101168.31;5090874;28;20035;-28
2022/12/30 06:52:44;;;;;;;41.55;23.98;;;;;;;3.15;71.45;101141.00;5090804;28;20028;-25
2022/12/30 06:55:10;;;;;;;46.15;26.23;;;;;;;3.20;73.27;101152.75;5091293;28;20388;-28
2022/12/30 06:57:35;;;;;;;42.53;23.02;;;;;;;2.29;74.12;101140.97;5090870;28;20103;-27
2022/12/30 07:00:04;;;;;;;62.42;34.50;;;;;;;1.67;77.86;101166.63;5090773;28;20025;-26
2022/12/30 07:02:29;;;;;;;51.63;24.27;;;;;;;1.59;78.71;101154.16;5090707;28;20103;-26
2022/12/30 07:04:55;;;;;;;45.15;23.33;;;;;;;1.26;79.54;101142.13;5090699;28;20115;-25
2022/12/30 07:07:21;;;;;;;43.92;22.15;;;;;;;1.17;80.75;101157.72;5090425;28;20024;-34
2022/12/30 07:09:46;;;;;;;41.88;22.80;;;;;;;0.91;81.75;101154.66;5090840;28;20404;-25
2022/12/30 07:12:11;;;;;;;60.20;38.45;;;;;;;1.15;81.74;101157.00;5090622;28;20441;-26
2022/12/30 07:14:37;;;;;;;49.30;25.08;;;;;;;1.06;81.11;101142.03;5090377;28;20510;-27
2022/12/30 07:17:02;;;;;;;65.50;29.77;;;;;;;1.00;82.29;101150.41;5072236;28;20032;-26
2022/12/30 07:19:28;;;;;;;60.25;30.30;;;;;;;1.33;82.70;101164.31;5090784;28;20028;-27
2022/12/30 07:21:54;;;;;;;60.45;31.15;;;;;;;1.40;82.30;101170.69;5090239;28;20056;-25
2022/12/30 07:24:20;;;;;;;49.67;27.17;;;;;;;1.41;82.72;101169.72;5072002;28;20036;-26
2022/12/30 07:26:46;;;;;;;48.70;25.23;;;;;;;1.15;83.05;101171.94;5072242;28;20046;-25
2022/12/30 07:29:12;;;;;;;48.83;26.30;;;;;;;0.92;85.65;101158.13;5090304;28;20534;-31
2022/12/30 07:31:39;;;;;;;49.47;27.50;;;;;;;1.20;83.56;101154.81;5090202;28;20020;-28
2022/12/30 07:34:06;;;;;;;97.57;38.70;;;;;;;1.25;85.44;101170.22;5089968;28;20048;-25
2022/12/30 07:36:31;;;;;;;72.00;33.90;;;;;;;1.15;86.63;101170.16;5089933;28;20039;-26
2022/12/30 07:39:00;;;;;;;53.30;25.83;;;;;;;1.43;87.07;101175.69;5090341;28;20454;-29
2022/12/30 07:41:26;;;;;;;48.45;26.30;;;;;;;1.46;86.78;101175.41;5090161;28;20028;-29
2022/12/30 07:43:52;;;;;;;50.72;25.30;;;;;;;1.36;88.18;101185.06;5090140;28;20046;-25
2022/12/30 07:46:18;;;;;;;45.08;26.27;;;;;;;1.37;87.65;101177.03;5089782;28;20420;-27
2022/12/30 07:48:44;;;;;;;56.15;31.67;;;;;;;1.26;89.01;101181.53;5071762;28;20499;-27
2022/12/30 07:51:14;;;;;;;48.67;26.25;;;;;;;1.27;89.90;101164.78;5089623;28;20034;-27
2022/12/30 07:53:40;;;;;;;52.17;26.27;;;;;;;1.08;90.62;101170.78;5071869;28;20019;-25
2022/12/30 07:56:08;;;;;;;51.15;26.77;;;;;;;1.13;90.89;101169.44;5089817;28;20032;-25
2022/12/30 07:58:34;;;;;;;52.47;26.20;;;;;;;1.49;89.68;101190.94;5089936;28;20119;-26
2022/12/30 08:01:07;;;;;;;50.70;27.98;;;;;;;1.68;88.86;101190.16;5071480;28;20563;-26
2022/12/30 08:03:33;;;;;;;77.10;41.05;;;;;;;1.89;89.97;101181.38;5089389;28;20024;-26
2022/12/30 08:06:06;;;;;;;63.47;33.35;;;;;;;1.87;89.03;101185.94;5089857;28;20032;-26
2022/12/30 08:08:33;;;;;;;63.67;37.30;;;;;;;2.07;89.38;101168.41;5089714;28;20032;-27
2022/12/30 08:10:59;;;;;;;67.72;37.72;;;;;;;2.67;87.65;101192.78;5089764;28;20024;-27
2022/12/30 08:13:25;;;;;;;60.72;32.25;;;;;;;2.78;86.05;101192.66;5089496;28;20077;-25
2022/12/30 08:15:50;;;;;;;52.13;28.85;;;;;;;2.87;85.77;101190.16;5089468;28;20028;-28
2022/12/30 08:18:16;;;;;;;58.00;31.75;;;;;;;2.64;86.66;101177.28;5088848;28;20506;-26
2022/12/30 08:20:41;;;;;;;52.60;29.40;;;;;;;3.19;84.27;101198.56;5089641;28;20032;-26
2022/12/30 08:23:07;;;;;;;62.80;32.55;;;;;;;3.50;84.63;101179.84;5078830;28;20101;-25
2022/12/30 08:25:33;;;;;;;53.33;28.48;;;;;;;3.89;81.95;101200.78;5065166;28;20044;-25
2022/12/30 08:27:59;;;;;;;52.75;29.35;;;;;;;3.95;83.50;101191.44;5089184;28;20065;-33
2022/12/30 08:30:24;;;;;;;49.75;27.55;;;;;;;4.06;83.16;101193.84;5071107;28;20032;-25
2022/12/30 08:32:50;;;;;;;47.17;26.05;;;;;;;3.88;83.61;101198.28;5089158;28;20020;-29
2022/12/30 08:35:15;;;;;;;48.20;26.63;;;;;;;4.17;85.18;101182.28;5087540;28;20067;-25
2022/12/30 08:37:41;;;;;;;45.50;25.80;;;;;;;4.86;81.55;101187.81;5089346;28;20031;-28
2022/12/30 08:40:08;;;;;;;45.65;26.45;;;;;;;4.92;81.52;101181.91;5070947;28;20393;-28
2022/12/30 08:42:37;;;;;;;45.78;25.52;;;;;;;4.97;82.11;101167.25;5071091;28;20024;-26
2022/12/30 08:45:07;;;;;;;45.22;26.60;;;;;;;5.43;81.32;101193.47;5070934;28;20500;-27
2022/12/30 08:47:34;;;;;;;46.13;26.50;;;;;;;5.06;81.46;101184.00;5088921;28;20803;-26
2022/12/30 08:49:59;;;;;;;43.78;25.77;;;;;;;5.27;81.26;101185.44;5088887;28;20032;-34
2022/12/30 08:52:27;;;;;;;40.83;25.10;;;;;;;5.61;80.57;101194.22;5087930;28;20026;-26
2022/12/30 08:54:53;;;;;;;42.70;24.92;;;;;;;5.94;80.91;101182.94;5089277;28;20067;-27
2022/12/30 08:57:18;;;;;;;43.60;24.92;;;;;;;5.82;80.05;101161.22;5088782;28;20024;-26
2022/12/30 08:59:44;;;;;;;44.28;25.27;;;;;;;6.25;79.83;101172.59;5070474;28;20423;-27
2022/12/30 09:02:13;;;;;;;44.13;25.92;;;;;;;6.71;78.83;101175.63;5070376;28;20020;-26
2022/12/30 09:04:39;;;;;;;39.17;22.60;;;;;;;6.83;77.01;101174.28;5088726;28;20389;-28
2022/12/30 09:07:05;;;;;;;38.85;23.00;;;;;;;6.88;77.03;101159.69;5081067;28;20027;-26
2022/12/30 09:09:31;;;;;;;40.53;24.10;;;;;;;7.29;76.21;101180.84;5062531;28;20113;-27
2022/12/30 09:11:56;;;;;;;34.90;22.27;;;;;;;7.16;76.47;101158.31;5079612;28;20491;-27
2022/12/30 09:14:22;;;;;;;41.03;23.58;;;;;;;7.23;76.54;101154.00;5073171;28;20119;-29
2022/12/30 09:16:48;;;;;;;43.13;25.20;;;;;;;7.69;74.18;101168.44;5085000;28;20036;-26
2022/12/30 09:19:15;;;;;;;41.30;24.70;;;;;;;7.85;73.72;101174.50;5055846;28;20028;-29
2022/12/30 09:21:40;;;;;;;41.85;23.33;;;;;;;7.89;74.03;101161.72;5079241;28;20049;-26
2022/12/30 09:24:06;;;;;;;39.45;24.15;;;;;;;7.96;74.43;101152.03;5079212;28;20028;-28
2022/12/30 09:26:31;;;;;;;41.40;23.92;;;;;;;8.28;73.11;101147.50;5084514;28;20036;-26
2022/12/30 09:28:58;;;;;;;45.35;27.73;;;;;;;8.52;72.46;101145.69;5071279;28;20024;-28
2022/12/30 09:31:24;;;;;;;38.17;23.77;;;;;;;8.47;71.57;101124.97;5081683;28;20029;-26
2022/12/30 09:33:49;;;;;;;37.58;23.02;;;;;;;8.32;73.13;101138.19;5078822;28;20027;-27
2022/12/30 09:36:15;;;;;;;44.10;26.27;;;;;;;8.71;71.68;101134.56;5074112;28;20412;-29
2022/12/30 09:38:41;;;;;;;57.53;29.65;;;;;;;8.71;72.10;101120.44;5084721;28;20016;-27
2022/12/30 09:44:45;;;;;;;38.15;23.13;;;;;;;8.91;70.82;101118.06;5072897;28;20039;-30
2022/12/30 09:47:26;;;;;;;43.28;24.42;;;;;;;9.10;70.08;101120.22;5084610;28;20028;-28
2022/12/30 09:50:14;;;;;;;38.58;22.50;;;;;;;9.27;70.14;101110.19;5091920;28;20028;-28
2022/12/30 09:52:50;;;;;;;42.13;23.42;;;;;;;9.47;69.37;101105.13;5083115;28;20032;-28
2022/12/30 09:55:46;;;;;;;41.17;26.23;;;;;;;10.01;68.30;101091.41;5067207;28;20032;-26
2022/12/30 09:58:17;;;;;;;35.95;22.50;;;;;;;9.88;67.57;101099.25;5071320;28;20059;-26
2022/12/30 10:00:44;;;;;;;39.03;23.40;;;;;;;10.13;66.43;101072.22;5071792;28;20029;-26
2022/12/30 10:03:16;;;;;;;34.63;23.30;;;;;;;10.49;65.47;101098.81;5071735;28;20025;-28
2022/12/30 10:05:59;;;;;;;42.53;24.40;;;;;;;10.63;64.81;101083.75;5053734;28;20286;-28
2022/12/30 10:08:35;;;;;;;39.88;23.80;;;;;;;10.48;64.68;101069.69;5071437;28;20021;-28
2022/12/30 10:11:32;;;;;;;37.03;23.48;;;;;;;10.71;64.83;101086.28;5071591;28;20036;-28
2022/12/30 10:14:30;;;;;;;35.75;24.13;;;;;;;10.73;65.07;101060.22;5071529;28;20040;-28
2022/12/30 10:17:20;;;;;;;50.22;34.33;;;;;;;11.36;63.52;101083.34;5071322;28;20036;-28
2022/12/30 10:20:06;;;;;;;36.83;22.52;;;;;;;11.64;61.71;101078.72;5071079;28;20036;-28
2022/12/30 10:22:55;;;;;;;77.32;58.42;;;;;;;11.85;60.92;101060.91;5070821;28;20480;-32
2022/12/30 10:25:37;;;;;;;38.58;24.02;;;;;;;12.10;59.93;101065.69;5071995;28;20455;-31
2022/12/30 10:28:04;;;;;;;33.50;22.35;;;;;;;12.05;59.99;101055.59;5091327;28;20035;-28
2022/12/30 10:30:37;;;;;;;36.45;22.67;;;;;;;11.90;60.56;101053.13;5091431;28;20093;-27
2022/12/30 10:33:07;;;;;;;36.28;23.58;;;;;;;11.79;60.35;101056.34;5072692;28;20405;-26
2022/12/30 10:35:34;;;;;;;47.08;31.60;;;;;;;12.38;60.12;101044.94;5072771;28;20409;-28
2022/12/30 10:38:04;;;;;;;46.08;33.80;;;;;;;12.53;58.98;101047.38;5090659;28;20028;-27
2022/12/30 10:41:18;;;;;;;45.13;33.30;;;;;;;12.54;58.76;101029.47;5091048;28;20020;-28
2022/12/30 10:43:47;;;;;;;38.53;24.17;;;;;;;12.57;57.92;101043.25;5091154;28;20038;-27
2022/12/30 10:46:24;;;;;;;37.03;22.67;;;;;;;12.76;57.64;101024.69;5071266;28;20038;-27
2022/12/30 10:49:08;;;;;;;37.53;23.60;;;;;;;12.98;56.94;101038.63;5090971;28;20157;-28
2022/12/30 10:51:33;;;;;;;38.85;23.23;;;;;;;12.70;58.15;101014.81;5090840;28;20106;-28
2022/12/30 10:54:00;;;;;;;33.45;21.67;;;;;;;13.34;56.97;101026.56;5072446;28;20032;-33
2022/12/30 10:56:32;;;;;;;35.83;23.20;;;;;;;13.31;57.35;101027.81;5072265;28;20131;-27
2022/12/30 10:59:04;;;;;;;34.88;23.25;;;;;;;13.64;55.77;101005.38;5090336;28;20077;-27
2022/12/30 11:01:33;;;;;;;33.95;21.48;;;;;;;14.00;54.47;101017.31;5072494;28;20081;-29
2022/12/30 11:03:59;;;;;;;36.95;23.02;;;;;;;14.45;52.43;101007.22;5071827;28;20032;-31
2022/12/30 11:06:37;;;;;;;38.95;24.77;;;;;;;14.40;53.10;101003.53;5090304;28;20055;-27
2022/12/30 11:09:11;;;;;;;;;;;;;;;14.84;51.20;101015.09;5090879;28;20051;-27
2022/12/30 11:14:42;;;;;;;34.28;21.63;;;;;;;15.16;49.47;101018.44;5090512;28;20048;-30
2022/12/30 11:17:21;;;;;;;32.90;21.80;;;;;;;15.38;49.03;100993.75;5090232;28;20508;-29
2022/12/30 11:19:55;;;;;;;44.40;32.80;;;;;;;16.06;47.83;100996.06;5090379;28;20093;-27
2022/12/30 11:22:21;;;;;;;31.40;21.92;;;;;;;16.14;46.45;100996.75;5089704;28;20430;-29
2022/12/30 11:25:04;;;;;;;38.45;26.08;;;;;;;16.24;46.80;100976.31;5090316;28;20024;-32
2022/12/30 11:27:36;;;;;;;38.10;25.85;;;;;;;16.40;46.55;101001.69;5090057;28;20024;-28
2022/12/30 11:30:02;;;;;;;36.00;24.27;;;;;;;16.52;46.59;101008.97;5089831;28;20140;-31
2022/12/30 11:32:28;;;;;;;35.50;23.90;;;;;;;16.69;45.55;100996.38;5089987;28;20114;-28
2022/12/30 11:34:53;;;;;;;35.40;24.30;;;;;;;16.70;46.38;100995.34;5090162;28;20078;-27
2022/12/30 11:37:31;;;;;;;35.90;24.08;;;;;;;16.35;47.24;100995.38;5089915;28;20036;-28
2022/12/30 11:40:18;;;;;;;40.13;26.00;;;;;;;16.79;45.70;100993.91;5089779;28;20028;-28
2022/12/30 11:42:44;;;;;;;38.07;25.83;;;;;;;16.44;46.50;100970.53;5071649;28;20039;-26
2022/12/30 11:45:20;;;;;;;36.40;25.20;;;;;;;16.86;45.90;100983.88;5089805;28;20567;-28
2022/12/30 11:47:47;;;;;;;69.35;56.00;;;;;;;16.84;46.02;100980.59;5089667;28;20016;-28
2022/12/30 11:50:19;;;;;;;48.97;30.58;;;;;;;17.20;45.39;100981.31;5071244;28;20063;-28
2022/12/30 11:52:58;;;;;;;49.05;29.42;;;;;;;16.77;46.50;100966.41;5089454;28;20028;-29
2022/12/30 11:55:25;;;;;;;34.38;23.60;;;;;;;16.65;45.49;100973.69;5089926;28;20032;-28
2022/12/30 11:57:55;;;;;;;32.25;22.73;;;;;;;16.83;45.12;100957.41;5089729;28;20027;-28
2022/12/30 12:00:21;;;;;;;33.25;23.05;;;;;;;16.79;45.88;100966.97;5070969;28;20024;-32
2022/12/30 12:03:01;;;;;;;32.28;22.13;;;;;;;17.61;43.06;100963.19;5089566;28;20030;-29
2022/12/30 12:05:30;;;;;;;29.70;19.58;;;;;;;17.70;42.46;100962.78;5089096;28;20510;-28
2022/12/30 12:08:04;;;;;;;27.42;18.35;;;;;;;18.05;42.63;100957.97;5089487;28;20020;-29
2022/12/30 12:10:38;;;;;;;28.10;19.02;;;;;;;17.58;42.60;100947.47;5088554;28;20039;-32
2022/12/30 12:13:22;;;;;;;28.60;19.23;;;;;;;17.75;42.41;100962.84;5089290;28;20105;-29
2022/12/30 12:15:51;;;;;;;30.80;20.13;;;;;;;17.78;42.54;100959.69;5088891;28;20492;-26
2022/12/30 12:18:23;;;;;;;29.08;19.55;;;;;;;17.91;42.52;100951.25;5089091;28;20032;-27
2022/12/30 12:20:58;;;;;;;32.70;19.73;;;;;;;17.86;43.34;100959.28;5089000;28;20069;-28